Terminal Aerodrome Forecast
Issued by NWS

Home | Current Version | Previous Version | Graphics & Text | Print | Product List | Glossary On
Versions: 1 2 3 4 5 6 7 8 9 10 11 12 13 14 15 16 17 18 19 20 21 22 23 24 25 26 27 28 29 30 31
000
FTUS43 KABR 241700
TAFATY
TAF
KATY 241720Z 2418/2518 16015G24KT 5SM -SHRA BR OVC008
     FM242000 18015G25KT P6SM VCSH SCT008 BKN020
     FM250300 17011KT 4SM BR OVC001
     FM251500 30020KT P6SM OVC025=

USA.gov is the U.S. government's official web portal to all federal, state and local government web resources and services.